createdAt,value
2018-07-13T00:01:35.096Z,7.94
2018-07-13T00:04:06.122Z,8.80
2018-07-13T00:06:37.358Z,7.37
2018-07-13T00:09:11.753Z,8.50
2018-07-13T00:11:42.150Z,8.20
2018-07-13T00:14:21.389Z,9.23
2018-07-13T00:16:52.841Z,8.10
2018-07-13T00:19:23.369Z,7.97
2018-07-13T00:21:53.524Z,10.25
2018-07-13T00:24:23.466Z,8.30
2018-07-13T00:26:53.327Z,9.57
2018-07-13T00:29:23.713Z,10.32
2018-07-13T00:31:53.497Z,8.97
2018-07-13T00:34:23.394Z,13.33
2018-07-13T00:36:53.686Z,11.20
2018-07-13T00:39:23.590Z,9.53
2018-07-13T00:41:53.365Z,9.63
2018-07-13T00:44:23.221Z,13.27
2018-07-13T00:46:52.999Z,11.12
2018-07-13T00:49:22.853Z,10.87
2018-07-13T00:51:53.748Z,14.28
2018-07-13T00:54:25.070Z,12.42
2018-07-13T00:56:55.985Z,13.90
2018-07-13T00:59:26.845Z,14.47
2018-07-13T01:01:58.151Z,13.64
2018-07-13T01:04:28.969Z,15.68
2018-07-13T01:06:59.963Z,15.13
2018-07-13T01:09:30.798Z,15.03
2018-07-13T01:12:03.428Z,14.67
2018-07-13T01:14:33.219Z,14.53
2018-07-13T01:17:04.599Z,15.14
2018-07-13T01:19:35.150Z,15.56
2018-07-13T01:22:06.113Z,17.02
2018-07-13T01:24:36.963Z,16.15
2018-07-13T01:27:07.809Z,15.43
2018-07-13T01:29:39.027Z,15.06
2018-07-13T01:32:09.633Z,17.30
2018-07-13T01:34:39.889Z,16.37
2018-07-13T01:37:10.778Z,16.17
2018-07-13T01:39:42.026Z,16.84
2018-07-13T01:42:12.954Z,18.98
2018-07-13T01:44:43.778Z,19.70
2018-07-13T01:47:15.080Z,20.66
2018-07-13T01:49:45.912Z,20.55
2018-07-13T01:52:16.822Z,23.98
2018-07-13T01:54:48.117Z,20.74
2018-07-13T01:57:19.010Z,20.12
2018-07-13T01:59:49.846Z,20.60
2018-07-13T02:02:21.173Z,20.36
2018-07-13T02:04:52.017Z,19.77
2018-07-13T02:07:22.944Z,20.40
2018-07-13T02:09:55.628Z,21.30
2018-07-13T02:12:25.566Z,22.70
2018-07-13T02:14:56.234Z,21.36
2018-07-13T02:17:27.125Z,21.30
2018-07-13T02:19:57.972Z,23.57
2018-07-13T02:22:28.849Z,23.92
2018-07-13T02:24:58.742Z,20.60
2018-07-13T02:27:30.534Z,21.32
2018-07-13T02:30:01.055Z,21.48
2018-07-13T02:32:31.961Z,23.15
2018-07-13T02:35:02.790Z,25.80
2018-07-13T02:37:34.158Z,21.34
2018-07-13T02:40:05.127Z,21.25
2018-07-13T02:42:36.045Z,21.60
2018-07-13T02:45:07.118Z,22.70
2018-07-13T02:47:38.276Z,20.85
2018-07-13T02:50:08.922Z,23.00
2018-07-13T02:52:40.169Z,19.48
2018-07-13T02:55:10.934Z,18.10
2018-07-13T02:57:41.818Z,25.00
2018-07-13T03:00:13.124Z,21.12
2018-07-13T03:02:44.045Z,25.37
2018-07-13T03:05:14.907Z,19.48
2018-07-13T03:07:45.858Z,25.88
2018-07-13T03:10:17.069Z,21.86
2018-07-13T03:12:47.960Z,25.27
2018-07-13T03:15:18.786Z,21.27
2018-07-13T03:17:50.151Z,23.46
2018-07-13T03:20:21.034Z,23.98
2018-07-13T03:22:51.913Z,25.43
2018-07-13T03:25:22.800Z,22.32
2018-07-13T03:27:54.132Z,24.68
2018-07-13T03:30:25.040Z,25.60
2018-07-13T03:32:55.937Z,26.30
2018-07-13T03:35:26.833Z,29.12
2018-07-13T03:37:57.761Z,27.73
2018-07-13T03:40:29.110Z,26.02
2018-07-13T03:43:00.064Z,29.45
2018-07-13T03:45:30.914Z,25.35
2018-07-13T03:48:01.812Z,31.73
2018-07-13T03:50:33.010Z,30.14
2018-07-13T03:53:03.929Z,35.95
2018-07-13T03:55:34.770Z,36.10
2018-07-13T03:58:06.163Z,33.94
2018-07-13T04:00:36.069Z,38.35
2018-07-13T04:03:07.050Z,35.85
2018-07-13T04:05:38.305Z,33.95
2018-07-13T04:08:09.067Z,35.55
2018-07-13T04:10:39.906Z,35.40
2018-07-13T04:13:11.242Z,37.55
2018-07-13T04:15:42.038Z,34.75
2018-07-13T04:18:16.177Z,39.25
2018-07-13T04:20:46.042Z,35.20
2018-07-13T04:23:15.982Z,40.47
2018-07-13T04:25:46.066Z,35.40
2018-07-13T04:28:17.455Z,37.95
2018-07-13T04:30:48.277Z,33.60
2018-07-13T04:33:19.135Z,36.98
2018-07-13T04:35:50.054Z,41.02
2018-07-13T04:38:20.898Z,39.95
2018-07-13T04:40:51.827Z,35.58
2018-07-13T04:43:23.161Z,38.90
2018-07-13T04:45:54.185Z,34.88
2018-07-13T04:48:25.222Z,39.27
2018-07-13T04:50:56.290Z,35.52
2018-07-13T04:53:27.193Z,43.28
2018-07-13T04:55:58.237Z,43.80
2018-07-13T04:58:29.150Z,41.42
2018-07-13T05:01:00.095Z,39.58
2018-07-13T05:03:30.290Z,35.73
2018-07-13T05:06:01.570Z,37.48
2018-07-13T05:08:32.727Z,37.70
2018-07-13T05:11:02.896Z,34.50
2018-07-13T05:13:33.745Z,31.70
2018-07-13T05:16:05.689Z,32.46
2018-07-13T05:18:37.143Z,35.04
2018-07-13T05:21:07.269Z,33.40
2018-07-13T05:23:38.278Z,36.55
2018-07-13T05:26:09.495Z,30.77
2018-07-13T05:28:40.340Z,27.72
2018-07-13T05:31:11.309Z,29.02
2018-07-13T05:33:42.215Z,27.77
2018-07-13T05:36:14.198Z,27.80
2018-07-13T05:38:44.516Z,27.07
2018-07-13T05:41:16.047Z,30.34
2018-07-13T05:43:46.217Z,24.25
2018-07-13T05:46:17.315Z,25.23
2018-07-13T05:48:48.236Z,25.05
2018-07-13T05:51:20.509Z,22.58
2018-07-13T05:53:50.511Z,24.60
2018-07-13T05:56:21.278Z,24.90
2018-07-13T05:58:52.081Z,25.25
2018-07-13T06:01:23.154Z,22.85
2018-07-13T06:03:55.463Z,21.66
2018-07-13T06:06:25.670Z,22.97
2018-07-13T06:08:56.118Z,21.93
2018-07-13T06:11:27.163Z,19.25
2018-07-13T06:13:58.096Z,20.08
2018-07-13T06:16:29.081Z,21.95
2018-07-13T06:19:00.706Z,22.10
2018-07-13T06:21:30.942Z,21.47
2018-07-13T06:24:01.258Z,18.63
2018-07-13T06:26:32.481Z,16.82
2018-07-13T06:29:03.073Z,18.85
2018-07-13T06:31:33.655Z,17.34
2018-07-13T06:34:04.020Z,16.33
2018-07-13T06:36:34.965Z,13.70
2018-07-13T06:39:08.015Z,17.10
2018-07-13T06:41:38.424Z,16.27
2018-07-13T06:44:08.325Z,18.07
2018-07-13T06:46:45.705Z,16.48
2018-07-13T06:49:16.019Z,14.90
2018-07-13T06:51:46.038Z,15.63
2018-07-13T06:54:15.811Z,13.72
2018-07-13T06:56:45.954Z,16.20
2018-07-13T06:59:18.307Z,16.30
2018-07-13T07:01:49.774Z,19.42
2018-07-13T07:04:33.009Z,14.97
2018-07-13T07:07:06.418Z,14.53
2018-07-13T07:09:36.611Z,13.80
2018-07-13T07:13:19.635Z,13.00
2018-07-13T07:15:49.634Z,11.60
2018-07-13T07:18:19.922Z,10.07
2018-07-13T07:20:50.167Z,11.33
2018-07-13T07:23:20.089Z,11.80
2018-07-13T07:25:50.337Z,9.67
2018-07-13T07:28:20.210Z,9.87
2018-07-13T07:30:50.279Z,13.90
2018-07-13T07:33:20.101Z,9.60
2018-07-13T07:35:50.064Z,13.43
2018-07-13T07:38:20.586Z,15.30
2018-07-13T07:40:50.980Z,8.40
2018-07-13T07:43:21.870Z,9.77
2018-07-13T07:45:52.457Z,12.65
2018-07-13T07:48:22.242Z,10.27
2018-07-13T07:50:52.086Z,10.60
2018-07-13T07:53:22.410Z,8.60
2018-07-13T07:55:52.214Z,9.50
2018-07-13T07:58:22.065Z,8.87
2018-07-13T08:00:52.347Z,7.43
2018-07-13T08:03:22.223Z,6.47
2018-07-13T08:05:52.305Z,8.07
2018-07-13T08:08:22.086Z,8.53
2018-07-13T08:10:52.003Z,8.87
2018-07-13T08:13:22.006Z,11.20
2018-07-13T08:15:52.111Z,8.90
2018-07-13T08:18:22.070Z,8.13
2018-07-13T08:20:52.531Z,9.97
2018-07-13T08:23:22.593Z,8.80
2018-07-13T08:25:53.387Z,10.23
2018-07-13T08:28:23.678Z,11.00
2018-07-13T08:30:58.326Z,12.07
2018-07-13T08:33:28.114Z,9.73
2018-07-13T08:35:58.114Z,9.33
2018-07-13T08:38:28.107Z,10.73
2018-07-13T08:40:58.191Z,8.17
2018-07-13T08:43:28.287Z,7.63
2018-07-13T08:45:58.207Z,7.93
2018-07-13T08:48:28.149Z,7.03
2018-07-13T08:50:58.196Z,5.60
2018-07-13T08:53:28.165Z,5.03
2018-07-13T08:55:58.218Z,4.53
2018-07-13T08:58:28.075Z,3.87
2018-07-13T09:00:58.345Z,4.97
2018-07-13T09:03:28.147Z,3.40
2018-07-13T09:05:58.230Z,5.80
2018-07-13T09:08:28.291Z,6.93
2018-07-13T09:10:58.230Z,4.00
2018-07-13T09:13:28.046Z,3.90
2018-07-13T09:15:57.997Z,3.07
2018-07-13T09:18:28.154Z,3.93
2018-07-13T09:20:57.983Z,5.80
2018-07-13T09:23:28.037Z,5.57
2018-07-13T09:25:57.999Z,5.17
2018-07-13T09:28:27.970Z,3.53
2018-07-13T09:30:57.990Z,5.27
2018-07-13T09:33:27.941Z,3.93
2018-07-13T09:35:58.130Z,4.40
2018-07-13T09:38:28.141Z,6.57
2018-07-13T09:40:58.227Z,7.17
2018-07-13T09:43:28.019Z,5.27
2018-07-13T09:45:58.097Z,5.30
2018-07-13T09:48:28.034Z,5.40
2018-07-13T09:50:57.968Z,4.47
2018-07-13T09:53:28.078Z,7.17
2018-07-13T09:55:57.989Z,5.00
2018-07-13T09:58:37.868Z,4.30
2018-07-13T10:01:13.090Z,4.27
2018-07-13T10:03:43.039Z,4.20
2018-07-13T10:06:13.161Z,4.27
2018-07-13T10:08:43.494Z,5.47
2018-07-13T10:11:13.405Z,3.47
2018-07-13T10:13:43.530Z,5.07
2018-07-13T10:16:13.765Z,5.33
2018-07-13T10:18:44.138Z,3.90
2018-07-13T10:21:14.613Z,7.37
2018-07-13T10:23:45.863Z,5.10
2018-07-13T10:26:23.565Z,3.83
2018-07-13T10:28:53.517Z,3.70
2018-07-13T10:31:23.687Z,3.50
2018-07-13T10:33:53.887Z,3.87
2018-07-13T10:36:24.169Z,4.10
2018-07-13T10:38:54.093Z,4.23
2018-07-13T10:41:24.017Z,5.03
2018-07-13T10:43:54.052Z,4.70
2018-07-13T10:46:24.235Z,8.93
2018-07-13T10:48:54.141Z,5.30
2018-07-13T10:51:24.058Z,4.43
2018-07-13T10:53:54.147Z,4.17
2018-07-13T10:56:25.093Z,4.90
2018-07-13T10:58:55.187Z,4.07
2018-07-13T11:01:24.961Z,4.37
2018-07-13T11:03:55.029Z,3.30
2018-07-13T11:06:24.982Z,5.40
2018-07-13T11:08:55.022Z,4.87
2018-07-13T11:11:24.966Z,7.87
2018-07-13T11:13:55.133Z,8.17
2018-07-13T11:16:25.122Z,6.43
2018-07-13T11:18:54.957Z,9.33
2018-07-13T11:21:25.086Z,6.03
2018-07-13T11:23:54.941Z,6.00
2018-07-13T11:26:25.507Z,5.70
2018-07-13T11:28:55.701Z,6.10
2018-07-13T11:31:25.618Z,5.23
2018-07-13T11:33:55.562Z,6.50
2018-07-13T11:36:25.407Z,7.27
2018-07-13T11:38:55.294Z,6.07
2018-07-13T11:41:25.088Z,8.23
2018-07-13T11:43:55.054Z,4.70
2018-07-13T11:46:24.917Z,6.73
2018-07-13T11:48:54.990Z,4.97
2018-07-13T11:51:24.867Z,5.27
2018-07-13T11:53:54.949Z,8.03
2018-07-13T11:56:25.118Z,5.15
2018-07-13T11:58:55.210Z,6.60
2018-07-13T12:01:24.995Z,8.40
2018-07-13T12:03:55.100Z,5.97
2018-07-13T12:06:24.926Z,5.67
2018-07-13T12:08:54.721Z,5.23
2018-07-13T12:11:24.518Z,4.50
2018-07-13T12:13:54.358Z,5.10
2018-07-13T12:16:24.703Z,4.65
2018-07-13T12:18:54.531Z,5.53
2018-07-13T12:21:24.465Z,5.10
2018-07-13T12:23:54.417Z,6.17
2018-07-13T12:26:26.770Z,4.83
2018-07-13T12:28:56.539Z,5.73
2018-07-13T12:31:26.410Z,15.28
2018-07-13T12:33:56.717Z,11.57
2018-07-13T12:36:26.665Z,11.15
2018-07-13T12:38:56.564Z,7.77
2018-07-13T12:41:27.362Z,9.92
2018-07-13T12:43:57.165Z,5.60
2018-07-13T12:46:27.990Z,6.90
2018-07-13T12:48:58.797Z,5.78
2018-07-13T12:51:30.046Z,6.65
2018-07-13T12:54:00.857Z,6.22
2018-07-13T12:56:31.842Z,6.20
2018-07-13T12:59:02.679Z,8.48
2018-07-13T13:01:34.107Z,5.60
2018-07-13T13:04:04.871Z,6.60
2018-07-13T13:06:35.765Z,6.83
2018-07-13T13:09:06.986Z,5.67
2018-07-13T13:11:37.786Z,7.70
2018-07-13T13:14:08.621Z,7.42
2018-07-13T13:16:40.037Z,7.72
2018-07-13T13:19:10.802Z,5.90
2018-07-13T13:21:41.826Z,10.05
2018-07-13T13:24:12.756Z,5.90
2018-07-13T13:26:43.707Z,5.60
2018-07-13T13:29:14.994Z,6.02
2018-07-13T13:31:46.573Z,7.48
2018-07-13T13:34:16.974Z,6.06
2018-07-13T13:36:47.821Z,7.50
2018-07-13T13:39:18.730Z,6.45
2018-07-13T13:41:50.102Z,6.36
2018-07-13T13:44:21.114Z,5.85
2018-07-13T13:46:51.915Z,6.10
2018-07-13T13:49:22.669Z,6.40
2018-07-13T13:51:54.022Z,5.78
2018-07-13T13:54:24.791Z,6.28
2018-07-13T13:56:55.775Z,5.55
2018-07-13T13:59:27.078Z,5.76
2018-07-13T14:01:57.913Z,5.85
2018-07-13T14:04:28.710Z,6.80
2018-07-13T14:07:00.077Z,5.60
2018-07-13T14:09:30.922Z,7.35
2018-07-13T14:12:01.898Z,5.40
2018-07-13T14:14:32.880Z,7.10
2018-07-13T14:17:04.019Z,6.70
2018-07-13T14:19:34.917Z,4.75
2018-07-13T14:22:05.798Z,4.35
2018-07-13T14:24:36.790Z,5.67
2018-07-13T14:27:07.880Z,6.37
2018-07-13T14:29:38.726Z,4.75
2018-07-13T14:32:09.383Z,3.75
2018-07-13T14:34:40.065Z,4.37
2018-07-13T14:37:11.885Z,7.75
2018-07-13T14:39:41.756Z,3.77
2018-07-13T14:42:12.773Z,4.70
2018-07-13T14:44:43.680Z,3.55
2018-07-13T14:47:15.149Z,3.76
2018-07-13T14:49:45.863Z,4.05
2018-07-13T14:52:17.280Z,4.65
2018-07-13T14:54:48.035Z,10.55
2018-07-13T14:57:18.964Z,7.78
2018-07-13T14:59:49.979Z,4.20
2018-07-13T15:02:21.099Z,3.40
2018-07-13T15:04:52.122Z,4.47
2018-07-13T15:07:23.077Z,7.92
2018-07-13T15:09:53.984Z,4.15
2018-07-13T15:12:24.914Z,4.25
2018-07-13T15:14:55.866Z,4.05
2018-07-13T15:17:26.887Z,3.95
2018-07-13T15:19:57.898Z,6.35
2018-07-13T15:22:28.922Z,9.33
2018-07-13T15:25:00.011Z,7.03
2018-07-13T15:27:30.921Z,8.08
2018-07-13T15:30:01.817Z,4.12
2018-07-13T15:32:33.485Z,6.67
2018-07-13T15:35:04.231Z,5.34
2018-07-13T15:37:35.179Z,5.53
2018-07-13T15:40:06.968Z,4.22
2018-07-13T15:42:36.944Z,8.07
2018-07-13T15:45:08.879Z,4.54
2018-07-13T15:47:38.894Z,4.00
2018-07-13T15:50:09.328Z,5.07
2018-07-13T15:52:40.131Z,2.50
2018-07-13T15:55:11.733Z,5.83
2018-07-13T15:57:41.889Z,4.25
2018-07-13T16:00:12.873Z,6.28
2018-07-13T16:02:43.873Z,4.20
2018-07-13T16:05:14.768Z,6.28
2018-07-13T16:07:45.903Z,6.42
2018-07-13T16:10:16.820Z,5.67
2018-07-13T16:12:48.375Z,9.78
2018-07-13T16:15:19.392Z,6.00
2018-07-13T16:17:50.130Z,7.95
2018-07-13T16:20:21.082Z,7.10
2018-07-13T16:22:52.034Z,5.83
2018-07-13T16:25:22.862Z,3.87
2018-07-13T16:27:53.811Z,13.40
2018-07-13T16:30:24.818Z,5.20
2018-07-13T16:32:55.781Z,5.28
2018-07-13T16:35:26.724Z,4.25
2018-07-13T16:37:58.106Z,3.74
2018-07-13T16:40:28.950Z,5.80
2018-07-13T16:42:59.851Z,38.13
2018-07-13T16:45:30.753Z,25.08
2018-07-13T16:48:02.409Z,17.94
2018-07-13T16:50:34.146Z,22.07
2018-07-13T16:53:04.249Z,11.90
2018-07-13T16:55:36.003Z,8.78
2018-07-13T16:58:06.082Z,15.17
2018-07-13T17:00:37.049Z,20.00
2018-07-13T17:03:08.117Z,24.80
2018-07-13T17:05:38.984Z,14.13
2018-07-13T17:08:09.918Z,10.72
2018-07-13T17:10:40.794Z,6.83
2018-07-13T17:13:12.186Z,8.94
2018-07-13T17:15:43.010Z,7.65
2018-07-13T17:18:13.946Z,7.97
2018-07-13T17:20:45.034Z,10.48
2018-07-13T17:23:15.927Z,11.63
2018-07-13T17:25:46.716Z,6.78
2018-07-13T17:28:18.198Z,10.24
2018-07-13T17:30:48.945Z,5.28
2018-07-13T17:33:19.872Z,5.22
2018-07-13T17:35:50.756Z,6.87
2018-07-13T17:38:21.767Z,6.40
2018-07-13T17:40:52.940Z,4.28
2018-07-13T17:43:23.819Z,3.75
2018-07-13T17:45:54.685Z,3.40
2018-07-13T17:48:25.954Z,3.30
2018-07-13T17:50:57.674Z,4.37
2018-07-13T17:53:28.221Z,4.66
2018-07-13T17:55:59.183Z,4.00
2018-07-13T17:58:29.987Z,3.77
2018-07-13T18:01:00.782Z,4.00
2018-07-13T18:03:31.794Z,5.70
2018-07-13T18:06:02.909Z,4.97
2018-07-13T18:08:34.048Z,3.30
2018-07-13T18:11:04.929Z,4.17
2018-07-13T18:13:35.785Z,3.42
2018-07-13T18:16:06.753Z,4.60
2018-07-13T18:18:37.710Z,3.45
2018-07-13T18:21:09.004Z,3.12
2018-07-13T18:23:39.830Z,3.92
2018-07-13T18:26:10.679Z,3.90
2018-07-13T18:28:42.043Z,5.06
2018-07-13T18:31:13.663Z,5.46
2018-07-13T18:33:44.212Z,3.52
2018-07-13T18:36:14.970Z,5.70
2018-07-13T18:38:45.896Z,3.72
2018-07-13T18:41:16.852Z,3.05
2018-07-13T18:43:48.454Z,3.47
2018-07-13T18:46:18.990Z,3.84
2018-07-13T18:48:50.086Z,3.25
2018-07-13T18:51:20.010Z,3.37
2018-07-13T18:53:50.952Z,5.65
2018-07-13T18:56:21.818Z,4.65
2018-07-13T18:58:52.823Z,2.95
2018-07-13T19:01:23.997Z,2.85
2018-07-13T19:03:54.828Z,3.37
2018-07-13T19:06:25.707Z,4.80
2018-07-13T19:08:57.095Z,3.14
2018-07-13T19:11:27.934Z,3.05
2018-07-13T19:13:57.885Z,5.67
2018-07-13T19:16:29.527Z,3.33
2018-07-13T19:19:01.137Z,4.40
2018-07-13T19:21:32.030Z,7.40
2018-07-13T19:24:03.757Z,4.92
2018-07-13T19:26:33.714Z,7.30
2018-07-13T19:29:05.010Z,4.36
2018-07-13T19:31:35.576Z,8.68
2018-07-13T19:34:06.263Z,12.64
2018-07-13T19:36:36.950Z,10.23
2018-07-13T19:39:08.274Z,9.13
2018-07-13T19:41:38.926Z,7.90
2018-07-13T19:44:08.818Z,4.53
2018-07-13T19:46:38.686Z,6.57
2018-07-13T19:49:08.797Z,4.23
2018-07-13T19:51:38.713Z,5.60
2018-07-13T19:54:09.792Z,7.07
2018-07-13T19:56:39.854Z,5.00
2018-07-13T19:59:09.851Z,5.53
2018-07-13T20:01:40.018Z,3.57
2018-07-13T20:04:09.980Z,3.73
2018-07-13T20:06:39.919Z,5.60
2018-07-13T20:09:09.870Z,3.30
2018-07-13T20:11:39.857Z,3.80
2018-07-13T20:14:10.003Z,3.43
2018-07-13T20:16:39.866Z,7.97
2018-07-13T20:19:09.957Z,6.60
2018-07-13T20:21:39.756Z,4.47
2018-07-13T20:24:09.897Z,6.47
2018-07-13T20:26:39.860Z,5.83
2018-07-13T20:29:09.868Z,4.50
2018-07-13T20:31:39.963Z,4.47
2018-07-13T20:34:09.886Z,3.37
2018-07-13T20:36:40.084Z,4.33
2018-07-13T20:39:10.058Z,4.03
2018-07-13T20:41:39.977Z,6.23
2018-07-13T20:44:09.874Z,6.00
2018-07-13T20:46:39.820Z,3.93
2018-07-13T20:49:09.862Z,4.43
2018-07-13T20:51:39.862Z,3.53
2018-07-13T20:54:09.850Z,3.67
2018-07-13T20:56:40.169Z,4.03
2018-07-13T20:59:10.149Z,4.57
2018-07-13T21:01:39.986Z,4.93
2018-07-13T21:04:09.864Z,5.30
2018-07-13T21:06:39.978Z,3.40
2018-07-13T21:09:10.006Z,8.13
2018-07-13T21:11:40.094Z,3.50
2018-07-13T21:14:10.214Z,4.73
2018-07-13T21:16:40.164Z,5.87
2018-07-13T21:19:09.940Z,4.07
2018-07-13T21:21:39.768Z,4.63
2018-07-13T21:24:09.828Z,4.77
2018-07-13T21:26:39.813Z,4.80
2018-07-13T21:29:09.846Z,4.00
2018-07-13T21:31:39.958Z,5.53
2018-07-13T21:34:09.785Z,4.90
2018-07-13T21:36:39.773Z,4.30
2018-07-13T21:39:09.859Z,4.37
2018-07-13T21:41:39.752Z,5.00
2018-07-13T21:44:09.800Z,6.30
2018-07-13T21:46:39.794Z,5.77
2018-07-13T21:49:09.738Z,7.50
2018-07-13T21:51:40.019Z,7.80
2018-07-13T21:54:09.920Z,5.40
2018-07-13T21:56:39.804Z,5.03
2018-07-13T21:59:09.816Z,4.83
2018-07-13T22:01:39.833Z,10.90
2018-07-13T22:04:09.846Z,6.53
2018-07-13T22:06:39.761Z,6.17
2018-07-13T22:09:09.769Z,8.57
2018-07-13T22:11:39.849Z,4.40
2018-07-13T22:14:09.800Z,4.83
2018-07-13T22:16:39.697Z,6.67
2018-07-13T22:19:09.743Z,4.03
2018-07-13T22:21:39.836Z,5.13
2018-07-13T22:24:09.716Z,4.70
2018-07-13T22:26:39.790Z,7.40
2018-07-13T22:29:09.712Z,4.80
2018-07-13T22:31:39.930Z,5.00
2018-07-13T22:34:09.700Z,4.07
2018-07-13T22:36:40.105Z,4.57
2018-07-13T22:39:09.897Z,4.57
2018-07-13T22:41:39.793Z,6.67
2018-07-13T22:44:09.796Z,5.73
2018-07-13T22:46:39.727Z,5.60
2018-07-13T22:49:09.749Z,8.13
2018-07-13T22:51:39.752Z,5.90
2018-07-13T22:54:09.696Z,3.83
2018-07-13T22:56:39.697Z,4.80
2018-07-13T22:59:09.860Z,8.03
2018-07-13T23:01:39.847Z,6.03
2018-07-13T23:04:09.709Z,5.37
2018-07-13T23:06:39.785Z,5.40
2018-07-13T23:09:09.965Z,7.65
2018-07-13T23:11:40.091Z,5.55
2018-07-13T23:14:09.866Z,10.60
2018-07-13T23:16:40.128Z,9.90
2018-07-13T23:19:09.969Z,9.93
2018-07-13T23:21:39.884Z,7.43
2018-07-13T23:24:10.257Z,7.10
2018-07-13T23:26:40.523Z,7.20
2018-07-13T23:29:11.198Z,7.75
2018-07-13T23:31:41.084Z,6.43
2018-07-13T23:34:10.929Z,6.33
2018-07-13T23:36:40.834Z,8.97
2018-07-13T23:39:10.689Z,6.23
2018-07-13T23:41:40.514Z,6.00
2018-07-13T23:44:10.892Z,15.40
2018-07-13T23:46:41.199Z,4.94
2018-07-13T23:49:10.965Z,7.10
2018-07-13T23:51:40.773Z,6.90
2018-07-13T23:54:11.266Z,5.87
2018-07-13T23:56:42.518Z,7.20
2018-07-13T23:59:13.339Z,5.53
